Time;durP1;ratioP1;P1;durP2;ratioP2;P2;SDS_P1;SDS_P2;PMS_P1;PMS_P2;Temp;Humidity;BMP_temperature;BMP_pressure;BME280_temperature;BME280_humidity;BME280_pressure;Samples;Min_cycle;Max_cycle;Signal;HPM_P1;HPM_P2
2020/12/11 00:00:25;;;;;;;11.20;9.93;;;3.80;99.90;;;;;;5063235;28;20808;-80
2020/12/11 00:02:54;;;;;;;10.13;9.13;;;3.80;99.90;;;;;;5092737;28;20160;-81
2020/12/11 00:05:20;;;;;;;9.30;8.32;;;3.90;99.90;;;;;;5091261;28;20646;-80
2020/12/11 00:07:46;;;;;;;11.10;10.00;;;3.90;99.90;;;;;;5076255;28;20179;-80
2020/12/11 00:10:13;;;;;;;11.47;10.27;;;4.00;99.90;;;;;;5093177;28;20658;-80
2020/12/11 00:12:39;;;;;;;10.60;9.50;;;4.00;99.90;;;;;;5075654;28;20570;-80
2020/12/11 00:15:07;;;;;;;10.60;9.50;;;4.00;99.90;;;;;;5093753;28;20164;-80
2020/12/11 00:17:33;;;;;;;13.45;11.30;;;4.00;99.90;;;;;;5093901;28;20227;-80
2020/12/11 00:20:02;;;;;;;11.02;9.93;;;3.90;99.90;;;;;;5095442;28;20204;-80
2020/12/11 00:22:27;;;;;;;11.05;9.93;;;4.00;99.90;;;;;;5078865;28;20304;-80
2020/12/11 00:24:53;;;;;;;11.37;10.17;;;4.00;99.90;;;;;;5081283;28;20180;-80
2020/12/11 00:27:19;;;;;;;14.03;10.80;;;4.00;99.90;;;;;;5080967;28;20574;-80
2020/12/11 00:29:45;;;;;;;13.50;10.02;;;4.00;99.90;;;;;;5096383;28;20172;-81
2020/12/11 00:32:17;;;;;;;11.63;10.27;;;3.90;99.90;;;;;;5054844;28;20177;-80
2020/12/11 00:34:43;;;;;;;12.45;11.25;;;4.00;99.90;;;;;;5075606;28;20228;-80
2020/12/11 00:37:08;;;;;;;11.80;10.60;;;4.00;99.90;;;;;;5080285;28;20203;-81
2020/12/11 00:39:34;;;;;;;10.93;9.80;;;4.00;99.90;;;;;;5079815;28;20307;-80
2020/12/11 00:42:00;;;;;;;14.00;12.60;;;4.00;99.90;;;;;;5079788;28;20172;-80
2020/12/11 00:44:28;;;;;;;11.68;10.25;;;4.00;99.90;;;;;;5096761;28;20156;-80
2020/12/11 00:46:55;;;;;;;13.10;10.60;;;4.00;99.90;;;;;;5094712;28;20244;-80
2020/12/11 00:49:23;;;;;;;12.48;11.18;;;4.00;99.90;;;;;;5076259;28;20569;-80
2020/12/11 00:51:54;;;;;;;13.73;12.45;;;4.00;99.90;;;;;;5040185;28;20173;-80
2020/12/11 00:54:21;;;;;;;10.45;9.35;;;4.00;99.90;;;;;;5046209;28;20154;-80
2020/12/11 00:56:47;;;;;;;13.20;11.80;;;4.00;99.90;;;;;;5055746;28;20201;-80
2020/12/11 00:59:13;;;;;;;13.77;12.18;;;4.10;99.90;;;;;;5061544;28;20232;-80
2020/12/11 01:01:39;;;;;;;13.70;12.30;;;4.00;99.90;;;;;;5026580;28;20283;-80
2020/12/11 01:04:05;;;;;;;12.70;11.40;;;4.00;99.90;;;;;;5061365;28;20210;-80
2020/12/11 01:06:31;;;;;;;13.43;10.73;;;4.00;99.90;;;;;;5057711;28;20575;-80
2020/12/11 01:08:57;;;;;;;15.15;13.55;;;4.10;99.90;;;;;;5056307;28;21079;-80
2020/12/11 01:11:23;;;;;;;11.73;10.57;;;4.00;99.90;;;;;;5041739;28;20220;-80
2020/12/11 01:13:49;;;;;;;13.75;11.43;;;4.10;99.90;;;;;;5055494;28;20511;-80
2020/12/11 01:16:14;;;;;;;13.53;12.13;;;4.10;99.90;;;;;;5037265;28;20183;-80
2020/12/11 01:18:40;;;;;;;12.80;11.47;;;4.10;99.90;;;;;;5019555;28;20254;-80
2020/12/11 01:21:06;;;;;;;11.33;10.23;;;4.10;99.90;;;;;;5053223;28;20188;-80
2020/12/11 01:23:32;;;;;;;14.87;11.47;;;4.10;99.90;;;;;;5056840;28;20181;-80
2020/12/11 01:25:57;;;;;;;14.43;12.98;;;4.10;99.90;;;;;;5055121;28;20161;-80
2020/12/11 01:28:23;;;;;;;11.37;10.17;;;4.10;99.90;;;;;;5072437;28;20150;-80
2020/12/11 01:30:49;;;;;;;10.63;9.40;;;4.20;99.90;;;;;;5067848;28;20595;-80
2020/12/11 01:33:15;;;;;;;12.80;9.67;;;4.20;99.90;;;;;;5032853;28;20165;-80
2020/12/11 01:35:43;;;;;;;11.70;10.57;;;4.20;99.90;;;;;;5048250;28;20568;-80
2020/12/11 01:38:09;;;;;;;10.07;9.00;;;4.20;99.90;;;;;;5063778;28;20176;-80
2020/12/11 01:40:36;;;;;;;11.97;10.47;;;4.20;99.90;;;;;;5045616;28;20201;-80
2020/12/11 01:43:02;;;;;;;10.45;9.00;;;4.20;99.90;;;;;;5064036;28;20618;-80
2020/12/11 01:45:28;;;;;;;10.07;9.18;;;4.20;99.90;;;;;;5061896;28;20176;-80
2020/12/11 01:47:54;;;;;;;13.00;11.65;;;4.20;99.90;;;;;;5041073;28;20175;-80
2020/12/11 01:50:20;;;;;;;12.30;11.00;;;4.20;99.90;;;;;;5064240;28;20223;-80
2020/12/11 01:52:47;;;;;;;12.60;11.40;;;4.20;99.90;;;;;;5046842;28;20568;-80
2020/12/11 01:55:14;;;;;;;12.95;10.95;;;4.10;99.90;;;;;;5067888;28;20258;-80
2020/12/11 01:57:53;;;;;;;11.75;10.55;;;4.10;99.90;;;;;;5065943;28;20561;-80
2020/12/11 02:00:20;;;;;;;10.75;9.52;;;4.10;99.90;;;;;;5067665;28;20570;-80
2020/12/11 02:02:51;;;;;;;14.07;11.90;;;4.10;99.90;;;;;;5067321;28;20160;-80
2020/12/11 02:05:17;;;;;;;12.68;11.27;;;4.10;99.90;;;;;;5067924;28;20168;-80
2020/12/11 02:07:43;;;;;;;13.20;10.20;;;4.10;99.90;;;;;;5067000;28;20670;-80
2020/12/11 02:10:10;;;;;;;11.03;9.80;;;4.20;99.90;;;;;;5051184;28;20188;-80
2020/12/11 02:12:37;;;;;;;12.55;11.18;;;4.20;99.90;;;;;;5069431;28;20575;-80
2020/12/11 02:15:07;;;;;;;11.25;9.65;;;4.10;99.90;;;;;;5071116;28;20180;-80
2020/12/11 02:17:35;;;;;;;9.55;8.15;;;4.20;99.90;;;;;;5071365;28;20160;-80
2020/12/11 02:23:44;;;;;;;11.95;10.70;;;4.20;99.90;;;;;;5047959;28;20617;-78
2020/12/11 02:26:37;;;;;;;9.88;8.85;;;4.10;99.90;;;;;;5015592;28;20172;-78
2020/12/11 02:29:33;;;;;;;10.63;9.10;;;4.10;99.90;;;;;;4972170;28;20215;-78
2020/12/11 02:32:38;;;;;;;9.27;8.20;;;4.20;99.90;;;;;;4922595;28;20180;-78
2020/12/11 02:35:40;;;;;;;11.55;9.90;;;4.20;99.90;;;;;;5010783;28;20187;-78
2020/12/11 02:39:07;;;;;;;11.43;10.10;;;4.10;99.90;;;;;;5015436;28;20256;-78
2020/12/11 02:42:17;;;;;;;11.55;10.05;;;4.10;99.90;;;;;;5029532;28;20303;-78
2020/12/11 02:45:32;;;;;;;10.88;9.73;;;4.00;99.90;;;;;;5012230;28;20170;-78
2020/12/11 02:48:29;;;;;;;15.80;12.48;;;4.00;99.90;;;;;;4964255;28;20458;-78
2020/12/11 02:51:39;;;;;;;12.10;10.38;;;3.90;99.90;;;;;;4993415;28;20189;-78
2020/12/11 02:54:29;;;;;;;11.88;10.57;;;3.90;99.90;;;;;;5013796;28;20687;-78
2020/12/11 02:58:12;;;;;;;13.25;10.57;;;3.90;99.90;;;;;;5013537;28;20183;-78
2020/12/11 03:01:47;;;;;;;12.30;11.00;;;3.90;99.90;;;;;;4993392;28;20263;-78
2020/12/11 03:04:45;;;;;;;;;;;;;;;;;;;;;
2020/12/11 03:07:45;;;;;;;12.75;10.65;;;3.80;99.90;;;;;;5017222;28;20204;-78
2020/12/11 03:10:43;;;;;;;12.95;11.20;;;3.90;99.90;;;;;;5028144;28;20200;-78
2020/12/11 03:13:26;;;;;;;11.02;9.85;;;3.80;99.90;;;;;;5012724;28;20194;-78
2020/12/11 03:16:33;;;;;;;10.20;8.98;;;3.80;99.90;;;;;;5011682;28;20193;-78
2020/12/11 03:19:19;;;;;;;10.63;9.57;;;3.80;99.90;;;;;;5027835;28;20353;-78
2020/12/11 03:22:15;;;;;;;10.55;9.00;;;3.80;99.90;;;;;;5029197;28;20169;-78
2020/12/11 03:25:03;;;;;;;9.70;8.68;;;3.80;99.90;;;;;;5012170;28;20189;-78
2020/12/11 03:27:51;;;;;;;11.07;9.95;;;3.80;99.90;;;;;;5029444;28;20193;-78
2020/12/11 03:30:54;;;;;;;10.32;7.63;;;3.90;99.90;;;;;;5011220;28;20636;-78
2020/12/11 03:33:42;;;;;;;11.25;9.73;;;3.90;99.90;;;;;;5031810;28;20170;-78
2020/12/11 03:36:19;;;;;;;13.80;10.23;;;3.90;99.90;;;;;;5032987;28;20169;-78
2020/12/11 03:39:20;;;;;;;10.13;9.13;;;3.80;99.90;;;;;;5034142;28;20667;-78
2020/12/11 03:42:07;;;;;;;8.98;8.07;;;3.80;99.90;;;;;;5002641;28;20182;-78
2020/12/11 03:44:53;;;;;;;12.23;10.95;;;3.80;99.90;;;;;;5035577;28;20249;-78
2020/12/11 03:47:33;;;;;;;11.00;8.85;;;3.80;99.90;;;;;;4983756;28;20175;-78
2020/12/11 03:50:25;;;;;;;10.68;8.85;;;3.80;99.90;;;;;;5014153;28;20189;-78
2020/12/11 03:53:39;;;;;;;;;;;;;;;;;;;;;
2020/12/11 03:56:37;;;;;;;11.98;10.82;;;3.80;99.90;;;;;;5016260;28;20789;-78
2020/12/11 03:59:46;;;;;;;10.50;8.13;;;3.90;99.90;;;;;;4993290;28;20226;-78
2020/12/11 04:02:23;;;;;;;10.57;9.23;;;3.90;99.90;;;;;;5033333;28;20545;-78
2020/12/11 04:05:44;;;;;;;;;;;;;;;;;;;;;
2020/12/11 04:08:32;;;;;;;11.10;9.40;;;4.00;99.90;;;;;;5014867;28;20172;-78
2020/12/11 04:11:13;;;;;;;12.98;11.15;;;3.90;99.90;;;;;;5030524;28;20276;-78
2020/12/11 04:13:53;;;;;;;11.60;10.20;;;3.90;99.90;;;;;;5041713;28;20361;-78
2020/12/11 04:16:48;;;;;;;;;;;;;;;;;;;;;
2020/12/11 04:19:42;;;;;;;11.52;10.18;;;3.90;99.90;;;;;;5034464;28;20196;-78
2020/12/11 04:22:39;;;;;;;12.45;11.25;;;4.00;99.90;;;;;;5037892;28;20176;-78
2020/12/11 04:25:31;;;;;;;13.13;11.00;;;3.90;99.90;;;;;;5019960;28;20181;-78
2020/12/11 04:28:19;;;;;;;12.85;10.70;;;4.00;99.90;;;;;;5034238;28;20167;-78
2020/12/11 04:31:25;;;;;;;9.65;8.32;;;3.90;99.90;;;;;;5050302;28;20191;-78
2020/12/11 04:37:22;;;;;;;9.45;8.45;;;4.00;99.90;;;;;;5033610;28;20177;-78
2020/12/11 04:40:31;;;;;;;9.20;8.30;;;4.10;99.90;;;;;;4999839;28;20282;-78
2020/12/11 04:44:07;;;;;;;;;;;;;;;;;;;;;
2020/12/11 04:47:16;;;;;;;;;;;;;;;;;;;;;
2020/12/11 04:54:01;;;;;;;12.95;9.80;;;4.00;99.90;;;;;;5033111;28;20185;-78
2020/12/11 04:56:57;;;;;;;9.43;8.05;;;4.00;99.90;;;;;;5051453;28;20289;-78
2020/12/11 04:59:29;;;;;;;10.40;9.30;;;4.00;99.90;;;;;;5021877;28;20302;-78
2020/12/11 05:02:34;;;;;;;13.50;11.50;;;4.00;99.90;;;;;;5011712;28;20177;-78
2020/12/11 05:05:44;;;;;;;14.63;9.68;;;4.00;99.90;;;;;;5051078;28;20537;-78
2020/12/11 05:09:05;;;;;;;10.20;8.50;;;4.00;99.90;;;;;;5028221;28;20226;-78
2020/12/11 05:11:41;;;;;;;10.30;9.27;;;4.10;99.90;;;;;;5032633;28;20294;-78
2020/12/11 05:14:53;;;;;;;15.60;9.15;;;4.00;99.90;;;;;;5050862;28;20182;-78
2020/12/11 05:18:28;;;;;;;;;;;;;;;;;;;;;
2020/12/11 05:21:32;;;;;;;11.45;9.43;;;4.00;99.90;;;;;;5050734;28;20232;-78
2020/12/11 05:25:15;;;;;;;;;;;;;;;;;;;;;
2020/12/11 05:27:52;;;;;;;13.90;11.60;;;4.00;99.90;;;;;;5032664;28;20208;-78
2020/12/11 05:30:19;;;;;;;11.63;10.40;;;4.00;99.90;;;;;;5050341;28;20228;-78
2020/12/11 05:32:49;;;;;;;12.75;11.00;;;4.00;99.90;;;;;;5032623;28;20560;-78
2020/12/11 05:35:32;;;;;;;8.85;7.95;;;4.00;99.90;;;;;;5022139;28;20169;-78
2020/12/11 05:38:12;;;;;;;10.70;9.60;;;4.10;99.90;;;;;;5032719;28;20564;-77
2020/12/11 05:40:44;;;;;;;12.10;10.90;;;4.10;99.90;;;;;;5000447;28;20220;-78
2020/12/11 05:43:21;;;;;;;10.07;8.93;;;4.10;99.90;;;;;;5016150;28;20173;-77
2020/12/11 05:46:07;;;;;;;10.77;9.75;;;4.10;99.90;;;;;;5050337;28;20149;-77
2020/12/11 05:48:39;;;;;;;10.30;9.23;;;4.20;99.90;;;;;;5049581;28;20518;-77
2020/12/11 05:51:37;;;;;;;10.63;9.57;;;4.20;99.90;;;;;;5049871;28;20184;-78
2020/12/11 05:55:02;;;;;;;12.68;10.80;;;4.20;99.90;;;;;;5042932;28;20187;-77
2020/12/11 05:58:13;;;;;;;8.98;8.07;;;4.10;99.90;;;;;;5017570;28;20553;-77
2020/12/11 06:54:24;;;;;;;13.55;12.35;;;4.10;99.90;;;;;;4296046;26;20204;-77
2020/12/11 06:57:00;;;;;;;11.23;10.00;;;4.20;99.90;;;;;;5019283;28;20187;-77
2020/12/11 06:59:36;;;;;;;11.80;10.68;;;4.10;99.90;;;;;;5011354;28;20237;-78
2020/12/11 07:02:15;;;;;;;15.85;13.32;;;4.20;99.90;;;;;;5016899;28;20222;-77
2020/12/11 07:04:50;;;;;;;11.50;10.40;;;4.20;99.90;;;;;;5036523;28;20199;-77
2020/12/11 07:07:22;;;;;;;12.90;11.32;;;4.20;99.90;;;;;;5019075;28;20169;-77
2020/12/11 07:09:54;;;;;;;13.73;10.80;;;4.20;99.90;;;;;;5035400;28;20185;-77
2020/12/11 07:12:35;;;;;;;;;;;;;;;;;;;;;
2020/12/11 07:15:14;;;;;;;12.40;11.20;;;4.30;99.90;;;;;;5053020;28;20201;-77
2020/12/11 07:17:46;;;;;;;11.68;10.48;;;4.30;99.90;;;;;;5034910;28;20177;-77
2020/12/11 08:21:01;;;;;;;12.40;10.45;;;5.10;99.90;;;;;;5079162;28;24959;-76
2020/12/11 08:23:49;;;;;;;12.85;9.60;;;5.10;99.90;;;;;;5014582;28;20209;-76
2020/12/11 08:26:39;;;;;;;10.02;9.02;;;5.10;99.90;;;;;;5016520;28;20200;-76
2020/12/11 08:29:42;;;;;;;9.82;8.73;;;5.30;99.90;;;;;;5045682;28;20169;-75
2020/12/11 08:32:35;;;;;;;11.75;9.75;;;5.30;99.90;;;;;;5015923;28;20177;-76
2020/12/11 08:35:25;;;;;;;11.10;9.40;;;5.40;99.90;;;;;;5018580;28;20271;-76
2020/12/11 08:38:20;;;;;;;12.82;9.32;;;5.30;99.90;;;;;;5025286;28;20593;-76
2020/12/11 08:41:20;;;;;;;9.75;8.85;;;5.40;99.90;;;;;;5017132;28;20205;-76
2020/12/11 08:43:51;;;;;;;9.48;8.50;;;5.50;99.90;;;;;;5025928;28;20197;-76
2020/12/11 08:52:54;;;;;;;10.55;9.43;;;5.60;99.90;;;;;;5011132;28;20182;-76
2020/12/11 08:55:42;;;;;;;11.00;9.90;;;5.60;99.90;;;;;;4992129;28;20181;-76
2020/12/11 08:58:49;;;;;;;10.45;9.43;;;5.60;99.90;;;;;;5031768;28;20238;-76
2020/12/11 09:02:03;;;;;;;8.85;8.05;;;5.60;99.90;;;;;;5024836;28;20209;-77
2020/12/11 09:05:23;;;;;;;;;;;;;;;;;;;;;
2020/12/11 09:12:23;;;;;;;;;;;;;;;;;;;;;
2020/12/11 09:19:58;;;;;;;;;;;;;;;;;;;;;
2020/12/11 09:23:49;;;;;;;8.70;7.80;;;5.80;99.90;;;;;;4948897;28;20825;-77
2020/12/11 09:34:25;;;;;;;7.53;6.82;;;5.80;99.90;;;;;;4992255;28;20309;-77
2020/12/11 09:36:51;;;;;;;8.15;7.35;;;6.00;99.90;;;;;;5013076;28;20174;-77
2020/12/11 09:39:17;;;;;;;8.68;7.78;;;6.00;99.90;;;;;;5012427;28;20194;-77
2020/12/11 09:41:56;;;;;;;7.22;6.53;;;6.00;99.90;;;;;;5011809;28;20535;-77
2020/12/11 09:56:03;;;;;;;7.90;7.10;;;6.20;99.90;;;;;;5036941;28;20173;-77
2020/12/11 09:58:45;;;;;;;7.70;7.00;;;6.20;99.90;;;;;;5011940;28;20166;-78
2020/12/11 10:01:29;;;;;;;7.28;6.40;;;6.20;99.90;;;;;;5010682;28;20632;-77
2020/12/11 10:04:11;;;;;;;7.65;6.82;;;6.30;99.90;;;;;;5010346;28;20189;-77
2020/12/11 10:06:58;;;;;;;8.10;6.60;;;6.40;99.90;;;;;;4995560;28;20665;-77
2020/12/11 10:09:42;;;;;;;8.70;6.78;;;6.40;99.90;;;;;;4978251;28;20178;-78
2020/12/11 10:12:21;;;;;;;9.55;8.38;;;6.40;99.90;;;;;;4978939;28;20182;-77
2020/12/11 10:15:05;;;;;;;7.72;6.93;;;6.40;99.90;;;;;;5010891;28;20189;-77
2020/12/11 10:17:34;;;;;;;6.78;6.18;;;6.50;99.90;;;;;;5010639;28;20170;-77
2020/12/11 10:20:08;;;;;;;9.32;7.68;;;6.50;99.90;;;;;;4994134;28;20205;-77
2020/12/11 10:22:37;;;;;;;10.82;7.00;;;6.40;99.90;;;;;;4994944;28;20255;-77
2020/12/11 10:25:07;;;;;;;6.78;5.75;;;6.50;99.90;;;;;;4994796;28;20171;-77
2020/12/11 10:27:38;;;;;;;8.10;7.30;;;6.60;99.90;;;;;;4993947;28;20182;-77
2020/12/11 10:30:28;;;;;;;7.53;6.72;;;6.60;99.90;;;;;;4994471;28;20565;-77
2020/12/11 10:36:16;;;;;;;7.00;6.30;;;6.70;99.90;;;;;;4994561;28;20185;-77
2020/12/11 10:38:47;;;;;;;6.85;6.15;;;6.80;99.90;;;;;;4994270;28;20235;-78
2020/12/11 10:41:13;;;;;;;7.57;6.38;;;6.80;99.90;;;;;;4993679;28;20679;-77
2020/12/11 10:43:47;;;;;;;6.55;5.93;;;6.80;99.90;;;;;;4992822;28;20167;-77
2020/12/11 10:46:44;;;;;;;7.80;6.00;;;6.80;99.90;;;;;;5010292;28;20209;-77
2020/12/11 10:54:21;;;;;;;;;;;;;;;;;;;;;
2020/12/11 11:02:39;;;;;;;;;;;;;;;;;;;;;
2020/12/11 11:11:41;;;;;;;7.25;6.55;;;6.80;99.90;;;;;;4973851;28;20202;-78
2020/12/11 11:28:20;;;;;;;8.27;6.80;;;6.90;99.90;;;;;;4964451;28;20180;-79
2020/12/11 12:45:35;;;;;;;6.75;5.22;;;8.90;99.90;;;;;;5778197;23;20239;-76
2020/12/11 14:34:00;;;;;;;7.13;5.45;;;7.40;99.90;;;;;;4912893;23;20230;-84
2020/12/11 14:36:30;;;;;;;8.65;6.80;;;7.30;99.90;;;;;;4993543;28;20167;-83
2020/12/11 14:41:23;;;;;;;7.40;6.50;;;7.00;99.90;;;;;;4975201;28;20645;-83
2020/12/11 14:43:49;;;;;;;7.60;6.35;;;7.00;99.90;;;;;;4975420;28;20629;-82
2020/12/11 14:46:23;;;;;;;8.35;6.85;;;6.90;99.90;;;;;;4992878;28;20539;-83
2020/12/11 14:48:51;;;;;;;9.07;8.18;;;6.90;99.90;;;;;;4958986;28;20185;-83
2020/12/11 14:51:17;;;;;;;8.05;6.90;;;6.80;99.90;;;;;;4992468;28;20174;-83
2020/12/11 14:53:43;;;;;;;9.77;8.05;;;6.80;99.90;;;;;;4992922;28;20191;-83
2020/12/11 14:56:09;;;;;;;7.90;7.07;;;6.70;99.90;;;;;;4993177;28;20262;-84
2020/12/11 14:58:35;;;;;;;8.10;7.15;;;6.70;99.90;;;;;;4983795;28;20693;-83
2020/12/11 15:01:01;;;;;;;7.55;6.85;;;6.60;99.90;;;;;;4958678;28;20251;-84
2020/12/11 15:03:27;;;;;;;8.88;6.78;;;6.60;99.90;;;;;;4956162;28;20238;-83
2020/12/11 15:05:53;;;;;;;10.10;8.60;;;6.60;99.90;;;;;;4939719;28;20582;-83
2020/12/11 15:08:19;;;;;;;12.30;9.27;;;6.60;99.90;;;;;;4976096;28;20740;-86
2020/12/11 15:10:45;;;;;;;10.00;9.05;;;6.50;99.90;;;;;;4994418;28;20598;-84
2020/12/11 15:13:11;;;;;;;9.50;7.50;;;6.50;99.90;;;;;;4974731;28;20784;-84
2020/12/11 15:15:37;;;;;;;11.75;9.02;;;6.50;99.90;;;;;;4992726;28;20628;-85
2020/12/11 15:18:03;;;;;;;8.43;7.53;;;6.50;99.90;;;;;;4992625;28;20167;-85
2020/12/11 15:20:28;;;;;;;12.07;9.73;;;6.50;99.90;;;;;;4975570;28;20624;-85
2020/12/11 15:22:54;;;;;;;10.30;9.07;;;6.40;99.90;;;;;;4975843;28;20191;-85
2020/12/11 15:25:27;;;;;;;12.67;9.30;;;6.40;99.90;;;;;;4959067;28;20578;-85
2020/12/11 15:27:53;;;;;;;8.73;7.18;;;6.40;99.90;;;;;;4957327;28;20611;-85
2020/12/11 15:30:21;;;;;;;10.60;8.68;;;6.40;99.90;;;;;;4974666;28;20171;-85
2020/12/11 15:32:48;;;;;;;10.43;8.30;;;6.40;99.90;;;;;;4942849;28;20268;-83
2020/12/11 15:35:14;;;;;;;15.68;10.50;;;6.40;99.90;;;;;;4993383;28;20167;-84
2020/12/11 15:37:39;;;;;;;14.00;9.90;;;6.40;99.90;;;;;;4995609;28;20655;-84
2020/12/11 15:40:05;;;;;;;10.73;8.83;;;6.40;99.90;;;;;;4971453;28;20233;-84
2020/12/11 15:42:31;;;;;;;11.70;9.93;;;6.40;99.90;;;;;;4977587;28;20178;-84
2020/12/11 15:44:57;;;;;;;11.57;10.37;;;6.30;99.90;;;;;;4991329;28;20551;-84
2020/12/11 15:47:23;;;;;;;11.60;9.67;;;6.30;99.90;;;;;;4989927;28;20621;-85
2020/12/11 15:49:49;;;;;;;10.93;9.55;;;6.30;99.90;;;;;;4954425;28;20573;-83
2020/12/11 15:52:15;;;;;;;12.00;10.10;;;6.20;99.90;;;;;;4971968;28;20221;-84
2020/12/11 15:54:41;;;;;;;12.50;9.70;;;6.30;99.90;;;;;;4954681;28;20266;-83
2020/12/11 15:57:06;;;;;;;10.70;9.57;;;6.20;99.90;;;;;;4975092;28;20201;-83
2020/12/11 15:59:32;;;;;;;9.90;8.70;;;6.20;99.90;;;;;;4973452;28;20574;-84
2020/12/11 16:01:58;;;;;;;9.20;7.53;;;6.10;99.90;;;;;;4991184;28;20171;-84
2020/12/11 16:04:24;;;;;;;12.17;9.27;;;6.10;99.90;;;;;;4987607;28;20191;-82
2020/12/11 16:06:53;;;;;;;11.55;10.10;;;6.10;99.90;;;;;;4991640;28;20947;-82
2020/12/11 16:09:19;;;;;;;10.48;9.32;;;6.10;99.90;;;;;;4991771;28;20167;-83
2020/12/11 16:11:45;;;;;;;18.23;12.85;;;6.10;99.90;;;;;;4990189;28;20221;-81
2020/12/11 16:14:11;;;;;;;11.23;9.90;;;6.00;99.90;;;;;;4976673;28;20202;-81
2020/12/11 16:16:37;;;;;;;12.67;10.43;;;6.00;99.90;;;;;;4992873;28;20580;-81
2020/12/11 16:19:03;;;;;;;11.27;9.13;;;5.90;99.90;;;;;;4972483;28;20213;-85
2020/12/11 16:21:28;;;;;;;12.27;10.85;;;6.00;99.90;;;;;;4968334;28;20559;-84
2020/12/11 16:23:55;;;;;;;12.03;10.63;;;6.00;99.90;;;;;;4990111;28;20190;-84
2020/12/11 16:26:21;;;;;;;16.70;12.65;;;5.90;99.90;;;;;;4988565;28;20209;-85
2020/12/11 16:28:47;;;;;;;12.17;10.20;;;5.90;99.90;;;;;;4970006;28;20183;-84
2020/12/11 16:31:15;;;;;;;12.40;10.93;;;5.90;99.90;;;;;;4981159;28;20178;-84
2020/12/11 16:33:41;;;;;;;12.15;10.23;;;5.90;99.90;;;;;;4978535;28;20211;-84
2020/12/11 16:36:07;;;;;;;9.68;8.68;;;6.00;99.90;;;;;;4966205;28;20195;-83
2020/12/11 16:38:33;;;;;;;13.38;11.13;;;5.90;99.90;;;;;;4953571;28;20178;-83
2020/12/11 16:40:59;;;;;;;11.70;10.07;;;5.90;99.90;;;;;;4978018;28;20553;-83
2020/12/11 16:46:03;;;;;;;13.75;10.65;;;5.90;99.90;;;;;;4997212;28;20689;-83
2020/12/11 16:48:31;;;;;;;18.65;13.82;;;5.90;99.90;;;;;;5013459;28;20174;-83
2020/12/11 16:50:57;;;;;;;22.03;17.57;;;5.80;99.90;;;;;;4996894;28;21146;-83
2020/12/11 16:53:23;;;;;;;18.15;15.95;;;5.80;99.90;;;;;;4982940;28;20808;-82
2020/12/11 16:55:49;;;;;;;16.50;12.83;;;5.80;99.90;;;;;;5014406;28;20170;-83
2020/12/11 16:58:15;;;;;;;14.02;12.18;;;5.80;99.90;;;;;;4996519;28;21096;-83
2020/12/11 17:00:41;;;;;;;12.53;10.53;;;5.80;99.90;;;;;;4996318;28;20290;-82
2020/12/11 17:08:18;;;;;;;12.25;10.50;;;5.80;99.90;;;;;;5013972;28;20194;-83
2020/12/11 17:10:44;;;;;;;12.27;11.05;;;5.90;99.90;;;;;;5013852;28;20170;-82
2020/12/11 17:13:10;;;;;;;11.23;9.50;;;5.90;99.90;;;;;;4994169;28;20229;-82
2020/12/11 17:15:36;;;;;;;15.33;12.20;;;6.00;99.90;;;;;;4993259;28;20186;-82
2020/12/11 17:18:01;;;;;;;13.47;11.90;;;6.00;99.90;;;;;;4994254;28;20825;-82
2020/12/11 17:20:28;;;;;;;12.10;10.33;;;5.90;99.90;;;;;;4994400;28;20660;-82
2020/12/11 17:22:53;;;;;;;14.60;11.40;;;6.00;99.90;;;;;;4995079;28;20598;-82
2020/12/11 17:25:19;;;;;;;15.37;11.77;;;5.90;99.90;;;;;;4961470;28;20563;-83
2020/12/11 17:27:45;;;;;;;11.00;8.80;;;5.90;99.90;;;;;;4960930;28;20570;-82
2020/12/11 17:30:33;;;;;;;14.10;12.47;;;5.90;99.90;;;;;;4997785;28;20253;-82
2020/12/11 17:35:27;;;;;;;13.82;11.73;;;5.90;99.90;;;;;;4994183;28;20214;-83
2020/12/11 17:37:53;;;;;;;13.43;11.53;;;5.90;99.90;;;;;;4975794;28;20203;-83
2020/12/11 17:40:19;;;;;;;14.17;11.20;;;5.90;99.90;;;;;;4976512;28;20605;-82
2020/12/11 17:42:45;;;;;;;16.53;12.50;;;5.90;99.90;;;;;;4992175;28;20191;-83
2020/12/11 17:45:10;;;;;;;15.87;11.73;;;5.90;99.90;;;;;;4956795;28;20598;-83
2020/12/11 17:47:36;;;;;;;10.60;9.50;;;6.00;99.90;;;;;;4956814;28;20172;-83
2020/12/11 17:50:03;;;;;;;15.03;11.47;;;6.00;99.90;;;;;;4957060;28;20186;-83
2020/12/11 17:52:29;;;;;;;16.50;12.50;;;6.00;99.90;;;;;;4956563;28;20270;-83
2020/12/11 17:54:55;;;;;;;13.30;11.27;;;6.00;99.90;;;;;;4975255;28;20254;-83
2020/12/11 17:57:20;;;;;;;12.15;10.93;;;6.00;99.90;;;;;;4975834;28;20579;-83
2020/12/11 17:59:46;;;;;;;14.13;11.60;;;6.00;99.90;;;;;;4958613;28;20208;-83
2020/12/11 18:02:12;;;;;;;15.80;12.50;;;6.00;99.90;;;;;;4958434;28;20606;-83
2020/12/11 18:04:39;;;;;;;12.03;10.17;;;6.10;99.90;;;;;;4976618;28;20993;-83
2020/12/11 18:07:06;;;;;;;12.27;10.45;;;6.10;99.90;;;;;;4978591;28;20591;-83
2020/12/11 18:09:32;;;;;;;12.18;9.80;;;6.10;99.90;;;;;;4975828;28;20203;-83
2020/12/11 18:11:59;;;;;;;12.80;11.47;;;6.10;99.90;;;;;;4960060;28;20184;-82
2020/12/11 18:14:26;;;;;;;10.65;9.32;;;6.10;99.90;;;;;;4972801;28;20706;-83
2020/12/11 18:16:53;;;;;;;10.57;9.55;;;6.10;99.90;;;;;;4956919;28;20651;-83
2020/12/11 18:19:21;;;;;;;12.20;9.98;;;6.10;99.90;;;;;;4972328;28;20222;-83
2020/12/11 18:21:56;;;;;;;11.32;10.15;;;6.20;99.90;;;;;;4973744;28;20195;-83
2020/12/11 18:24:28;;;;;;;11.35;9.75;;;6.10;99.90;;;;;;4973847;28;20199;-83
2020/12/11 18:26:58;;;;;;;16.45;11.40;;;6.10;99.90;;;;;;4974019;28;20239;-82
2020/12/11 18:29:24;;;;;;;17.42;12.63;;;6.10;99.90;;;;;;4972080;28;20523;-83
2020/12/11 18:31:51;;;;;;;15.68;13.60;;;6.20;99.90;;;;;;4974097;28;20183;-83
2020/12/11 18:34:18;;;;;;;15.82;12.95;;;6.20;99.90;;;;;;4972215;28;20294;-82
2020/12/11 18:36:45;;;;;;;14.63;13.07;;;6.20;99.90;;;;;;4956650;28;20167;-83
2020/12/11 18:39:11;;;;;;;12.95;11.02;;;6.20;99.90;;;;;;4973711;28;20204;-83
2020/12/11 18:41:36;;;;;;;13.32;11.93;;;6.20;99.90;;;;;;4956200;28;20179;-83
2020/12/11 18:44:02;;;;;;;13.93;11.10;;;6.10;99.90;;;;;;4977460;28;20218;-82
2020/12/11 18:46:28;;;;;;;10.50;9.40;;;6.10;99.90;;;;;;4975009;28;20567;-83
2020/12/11 18:48:55;;;;;;;9.77;8.77;;;6.20;99.90;;;;;;4974963;28;20179;-82
2020/12/11 18:51:22;;;;;;;14.45;10.85;;;6.20;99.90;;;;;;4975174;28;20235;-83
2020/12/11 18:53:47;;;;;;;12.05;10.82;;;6.20;99.90;;;;;;4976015;28;20188;-83
2020/12/11 18:56:41;;;;;;;12.50;11.00;;;6.20;99.90;;;;;;4975029;28;20254;-83
2020/12/11 18:59:04;;;;;;;14.82;12.35;;;6.20;99.90;;;;;;4955238;28;20657;-83
2020/12/11 19:01:30;;;;;;;13.30;11.90;;;6.20;99.90;;;;;;4956261;28;20168;-82
2020/12/11 19:03:56;;;;;;;16.52;9.52;;;6.20;99.90;;;;;;4972111;28;20188;-84
2020/12/11 19:06:23;;;;;;;13.60;12.20;;;6.20;99.90;;;;;;4970747;28;20179;-83
2020/12/11 19:08:51;;;;;;;12.65;10.88;;;6.20;99.90;;;;;;4992608;28;20574;-83
2020/12/11 19:11:17;;;;;;;13.40;11.57;;;6.30;99.90;;;;;;4992700;28;20159;-83
2020/12/11 19:13:43;;;;;;;14.10;11.87;;;6.30;99.90;;;;;;4992552;28;20556;-83
2020/12/11 19:16:11;;;;;;;13.10;10.80;;;6.30;99.90;;;;;;4974447;28;20607;-78
2020/12/11 19:18:39;;;;;;;12.50;11.25;;;6.30;99.90;;;;;;4984715;28;20585;-78
2020/12/11 19:21:04;;;;;;;14.43;10.43;;;6.20;99.90;;;;;;4996130;28;20670;-78
2020/12/11 19:23:31;;;;;;;14.70;12.25;;;6.30;99.90;;;;;;4974281;28;20253;-79
2020/12/11 19:25:57;;;;;;;14.33;11.20;;;6.30;99.90;;;;;;4973455;28;20734;-78
2020/12/11 19:28:23;;;;;;;12.93;11.48;;;6.20;99.90;;;;;;4973420;28;20697;-78
2020/12/11 19:30:49;;;;;;;11.70;10.48;;;6.30;99.90;;;;;;4954183;28;20203;-78
2020/12/11 19:33:15;;;;;;;16.80;13.90;;;6.30;99.90;;;;;;4972046;28;20246;-78
2020/12/11 19:35:44;;;;;;;15.02;12.52;;;6.20;99.90;;;;;;4956410;28;20603;-78
2020/12/11 19:38:09;;;;;;;12.90;11.13;;;6.30;99.90;;;;;;4972120;28;20897;-78
2020/12/11 19:40:36;;;;;;;13.53;11.37;;;6.30;99.90;;;;;;4971518;28;21275;-77
2020/12/11 19:43:01;;;;;;;13.95;12.52;;;6.30;99.90;;;;;;4993706;28;20617;-78
2020/12/11 19:45:27;;;;;;;14.63;13.13;;;6.20;99.90;;;;;;4960441;28;20183;-79
2020/12/11 19:47:53;;;;;;;14.43;12.37;;;6.20;99.90;;;;;;4994870;28;20602;-79
2020/12/11 19:50:23;;;;;;;13.13;11.87;;;6.30;99.90;;;;;;4962010;28;21173;-77
2020/12/11 19:52:50;;;;;;;15.10;13.00;;;6.30;99.90;;;;;;4984765;28;20644;-77
2020/12/11 19:55:16;;;;;;;13.80;12.32;;;6.30;99.90;;;;;;5002697;28;20167;-78
2020/12/11 19:57:42;;;;;;;13.90;11.95;;;6.30;99.90;;;;;;4988518;28;20182;-78
2020/12/11 20:00:09;;;;;;;11.47;10.37;;;6.30;99.90;;;;;;4986385;28;20713;-78
2020/12/11 20:02:37;;;;;;;12.13;10.50;;;6.30;99.90;;;;;;4986390;28;20602;-78
2020/12/11 20:05:03;;;;;;;12.30;10.40;;;6.40;99.90;;;;;;5003799;28;20689;-79
2020/12/11 20:10:02;;;;;;;11.68;9.15;;;6.40;99.90;;;;;;4992910;28;20179;-77
2020/12/11 20:12:29;;;;;;;11.10;10.00;;;6.40;99.90;;;;;;4992139;28;20175;-78
2020/12/11 20:14:56;;;;;;;10.05;9.02;;;6.50;99.90;;;;;;4991798;28;20163;-78
2020/12/11 20:17:22;;;;;;;11.40;10.13;;;6.50;99.90;;;;;;4973905;28;20183;-78